»·PEaware :: N7363G KSNA-KPMD

N7363G :: KSNA-KPMD

FLIGHT INFORMATION

Flight Status: Arrived
Operator: Privately registered:
United States
More flights under this callsign
Pilot: William S. (36862)
Aircraft: CESSNA 172 SKYHAWK
(C172)
More flights by this aircraft type
Origin: KSNA John Wayne-Orange Co
United States
Destination: KPMD Palmdale AF Plant 42
United States
More flights between these airports :: More routes between these airports
Route:
File this flight plan on PilotEdge
Remarks:
Altitude:
(Current/Filed)
4,500ft
Speed:
(Current/Filed)
0kts
Departed: 22-Jan-22 02:24 PM
Arrived: 22-Jan-22 03:10 PM
Distance/Time
Traveled:
58nm/0:46
Distance/Time
To Go:
Arrived

Flight Plot

Page will automatically refresh every two minutes.

Flight plan parsing failed; only flown route is shown


Map Options




Map Legend


Flown Route
Filed Route
Departure Airport
Arrival Airport
Navaid (VOR, NDB)
Fix

Horizontal Profiles

Position Reports

Time Latitude Longitude Heading Altitude Ground
Speed
22-Jan-22 14:12 33.667525 -117.871783 186 57ft 0kts
22-Jan-22 14:13 33.667525 -117.871783 186 57ft 0kts
22-Jan-22 14:14 33.667525 -117.871783 186 57ft 0kts
22-Jan-22 14:15 33.667525 -117.871783 186 57ft 0kts
22-Jan-22 14:16 33.667524 -117.871784 187 57ft 0kts
22-Jan-22 14:17 33.667552 -117.872972 295 61ft 0kts
22-Jan-22 14:18 33.667552 -117.872972 295 61ft 0kts
22-Jan-22 14:19 33.667552 -117.872972 295 61ft 0kts
22-Jan-22 14:20 33.667552 -117.872972 295 61ft 0kts
22-Jan-22 14:21 33.667552 -117.872972 295 61ft 0kts
22-Jan-22 14:22 33.669195 -117.872965 27 61ft 39kts
22-Jan-22 14:23 33.687929 -117.863749 346 740ft 83kts
22-Jan-22 14:24 33.709617 -117.871494 346 1654ft 82kts
22-Jan-22 14:25 33.729961 -117.855943 38 2393ft 94kts
22-Jan-22 14:26 33.749529 -117.834051 69 3091ft 103kts
22-Jan-22 14:27 33.744260 -117.801298 103 3819ft 97kts
22-Jan-22 14:28 33.736814 -117.770768 108 4468ft 103kts
22-Jan-22 14:29 33.729090 -117.735139 101 4573ft 112kts
22-Jan-22 14:30 33.727702 -117.699614 23 4557ft 115kts
22-Jan-22 14:31 33.757138 -117.710864 333 4537ft 110kts
22-Jan-22 14:32 33.784273 -117.728984 327 4580ft 112kts
22-Jan-22 14:33 33.812983 -117.744212 336 4813ft 106kts
22-Jan-22 14:34 33.838916 -117.754686 343 5529ft 91kts
22-Jan-22 14:35 33.863600 -117.762131 343 6169ft 90kts
22-Jan-22 14:36 33.889831 -117.771481 341 6444ft 114kts
22-Jan-22 14:37 33.920372 -117.784983 336 6422ft 117kts
22-Jan-22 14:38 33.950119 -117.800948 333 6380ft 117kts
22-Jan-22 14:39 33.979765 -117.817186 335 6360ft 116kts
22-Jan-22 14:40 34.009907 -117.831963 341 6338ft 116kts
22-Jan-22 14:41 34.041704 -117.840559 348 6314ft 117kts
22-Jan-22 14:42 34.072488 -117.849459 340 6445ft 112kts
22-Jan-22 14:43 34.097702 -117.864566 328 7002ft 90kts
22-Jan-22 14:44 34.119527 -117.878808 331 7503ft 88kts
22-Jan-22 14:45 34.143130 -117.891831 334 8002ft 95kts
22-Jan-22 14:46 34.166461 -117.907789 319 8525ft 95kts
22-Jan-22 14:47 34.190773 -117.924634 338 8788ft 106kts
22-Jan-22 14:48 34.220992 -117.936844 340 8707ft 125kts
22-Jan-22 14:49 34.255332 -117.948686 345 8452ft 127kts
22-Jan-22 14:50 34.287830 -117.955436 353 8445ft 114kts
22-Jan-22 14:51 34.319072 -117.962808 343 8382ft 114kts
22-Jan-22 14:52 34.341794 -117.971253 341 8344ft 114kts
22-Jan-22 14:53 34.372536 -117.981447 335 7937ft 115kts
22-Jan-22 14:54 34.402083 -117.995181 340 7358ft 114kts
22-Jan-22 14:55 34.431364 -118.008509 340 6611ft 113kts
22-Jan-22 14:56 34.459557 -118.023396 324 6096ft 110kts
22-Jan-22 14:57 34.485954 -118.041691 332 5629ft 108kts
22-Jan-22 14:58 34.513332 -118.057365 335 5255ft 108kts
22-Jan-22 14:59 34.539794 -118.074631 329 4935ft 107kts
22-Jan-22 15:00 34.565796 -118.092303 330 4642ft 106kts
22-Jan-22 15:01 34.590782 -118.107970 323 4366ft 80kts
22-Jan-22 15:02 34.605718 -118.132672 291 4926ft 89kts
22-Jan-22 15:03 34.608026 -118.163546 253 5578ft 92kts
22-Jan-22 15:04 34.588291 -118.182368 199 6180ft 97kts
22-Jan-22 15:05 34.572838 -118.165260 75 6039ft 103kts
22-Jan-22 15:06 34.586788 -118.139108 57 4956ft 77kts
22-Jan-22 15:07 34.599748 -118.117967 63 3726ft 80kts
22-Jan-22 15:08 34.613729 -118.096489 51 2675ft 74kts
22-Jan-22 15:09 34.621251 -118.083472 134 2535ft 22kts
22-Jan-22 15:10 34.620867 -118.083426 317 2537ft 0kts
22-Jan-22 15:11 34.620867 -118.083425 317 2537ft 0kts

Navigation Log

Ident Type
Flight plan parsing failed, navigation log unavailable